createdAt,value
2024-02-21T00:00:59.190Z,71.58
2024-02-21T00:04:01.520Z,72.16
2024-02-21T00:07:03.817Z,71.96
2024-02-21T00:10:06.610Z,71.95
2024-02-21T00:13:08.769Z,71.09
2024-02-21T00:16:12.154Z,70.88
2024-02-21T00:19:15.821Z,71.13
2024-02-21T00:22:18.199Z,70.57
2024-02-21T00:25:20.853Z,70.28
2024-02-21T00:28:23.226Z,69.36
2024-02-21T00:31:25.681Z,69.76
2024-02-21T00:34:28.000Z,69.34
2024-02-21T00:37:30.322Z,69.36
2024-02-21T00:40:32.561Z,68.77
2024-02-21T00:43:34.773Z,68.94
2024-02-21T00:46:40.000Z,68.96
2024-02-21T00:49:42.331Z,68.37
2024-02-21T00:52:44.700Z,68.48
2024-02-21T00:55:46.975Z,68.91
2024-02-21T00:58:49.162Z,68.91
2024-02-21T01:01:51.584Z,68.44
2024-02-21T01:04:54.172Z,67.25
2024-02-21T01:07:56.535Z,67.82
2024-02-21T01:10:58.851Z,67.70
2024-02-21T01:14:01.114Z,67.40
2024-02-21T01:17:03.287Z,67.92
2024-02-21T01:20:06.797Z,67.68
2024-02-21T01:23:09.045Z,67.27
2024-02-21T01:26:14.182Z,67.30
2024-02-21T01:29:16.392Z,67.43
2024-02-21T01:32:18.619Z,68.01
2024-02-21T01:35:20.882Z,67.74
2024-02-21T01:38:23.190Z,67.89
2024-02-21T01:41:25.692Z,67.90
2024-02-21T01:44:27.997Z,67.52
2024-02-21T01:47:30.135Z,68.12
2024-02-21T01:50:32.292Z,68.03
2024-02-21T01:53:38.113Z,68.90
2024-02-21T01:56:40.253Z,68.11
2024-02-21T01:59:42.388Z,68.49
2024-02-21T02:02:46.019Z,68.21
2024-02-21T02:05:49.788Z,67.82
2024-02-21T02:08:52.296Z,67.57
2024-02-21T02:11:54.607Z,67.45
2024-02-21T02:15:01.066Z,67.36
2024-02-21T02:18:03.472Z,67.41
2024-02-21T02:21:12.079Z,66.69
2024-02-21T02:24:15.352Z,66.51
2024-02-21T02:27:17.425Z,66.37
2024-02-21T02:30:19.509Z,66.65
2024-02-21T02:33:21.877Z,66.23
2024-02-21T02:36:24.353Z,66.93
2024-02-21T02:39:26.505Z,66.78
2024-02-21T02:42:28.650Z,66.60
2024-02-21T02:45:30.983Z,66.19
2024-02-21T02:48:33.306Z,67.05
2024-02-21T02:51:35.524Z,66.96
2024-02-21T02:54:37.776Z,66.72
2024-02-21T02:57:39.903Z,67.32
2024-02-21T03:00:42.034Z,66.97
2024-02-21T03:03:46.534Z,67.57
2024-02-21T03:06:48.751Z,67.63
2024-02-21T03:09:50.946Z,67.56
2024-02-21T03:12:54.372Z,67.40
2024-02-21T03:15:56.680Z,68.68
2024-02-21T03:18:59.049Z,67.97
2024-02-21T03:22:01.257Z,68.58
2024-02-21T03:25:04.015Z,67.83
2024-02-21T03:28:07.579Z,68.75
2024-02-21T03:31:09.852Z,67.95
2024-02-21T03:34:12.727Z,67.95
2024-02-21T03:37:15.490Z,68.79
2024-02-21T03:40:18.030Z,68.90
2024-02-21T03:43:20.207Z,69.15
2024-02-21T03:46:22.540Z,68.82
2024-02-21T03:49:24.833Z,69.17
2024-02-21T03:52:27.012Z,68.78
2024-02-21T03:55:29.338Z,69.21
2024-02-21T03:58:31.906Z,68.94
2024-02-21T04:01:34.237Z,69.25
2024-02-21T04:04:38.642Z,69.69
2024-02-21T04:07:40.881Z,70.09
2024-02-21T04:10:43.090Z,69.92
2024-02-21T04:13:45.733Z,70.11
2024-02-21T04:16:47.967Z,69.54
2024-02-21T04:19:50.395Z,69.78
2024-02-21T04:22:52.679Z,69.43
2024-02-21T04:25:54.881Z,69.83
2024-02-21T04:28:57.332Z,69.30
2024-02-21T04:31:59.662Z,69.75
2024-02-21T04:35:02.283Z,69.22
2024-02-21T04:38:05.146Z,70.00
2024-02-21T04:41:07.519Z,70.42
2024-02-21T04:44:10.045Z,70.60
2024-02-21T04:47:12.197Z,70.57
2024-02-21T04:50:14.692Z,71.06
2024-02-21T04:53:17.221Z,71.44
2024-02-21T04:56:19.405Z,72.00
2024-02-21T04:59:21.552Z,72.34
2024-02-21T05:02:25.516Z,72.53
2024-02-21T05:05:27.883Z,73.13
2024-02-21T05:08:30.066Z,72.95
2024-02-21T05:11:32.398Z,73.43
2024-02-21T05:14:34.617Z,73.65
2024-02-21T05:17:37.013Z,73.40
2024-02-21T05:20:39.306Z,73.52
2024-02-21T05:23:41.556Z,74.14
2024-02-21T05:26:43.747Z,73.73
2024-02-21T05:29:46.190Z,74.51
2024-02-21T05:32:48.426Z,74.56
2024-02-21T05:35:50.736Z,74.18
2024-02-21T05:38:52.859Z,74.12
2024-02-21T05:41:55.064Z,73.97
2024-02-21T05:44:57.195Z,74.00
2024-02-21T05:47:59.495Z,73.38
2024-02-21T05:51:03.002Z,73.18
2024-02-21T05:54:06.494Z,72.70
2024-02-21T05:57:09.061Z,71.53
2024-02-21T06:00:11.718Z,71.87
2024-02-21T06:03:16.600Z,70.91
2024-02-21T06:06:18.822Z,70.78
2024-02-21T06:09:20.970Z,71.56
2024-02-21T06:12:23.763Z,71.43
2024-02-21T06:15:26.077Z,71.52
2024-02-21T06:18:28.312Z,71.82
2024-02-21T06:21:31.160Z,71.43
2024-02-21T06:24:33.308Z,70.30
2024-02-21T06:27:35.523Z,69.71
2024-02-21T06:30:37.759Z,69.62
2024-02-21T06:33:39.976Z,69.00
2024-02-21T06:36:42.140Z,69.03
2024-02-21T06:39:45.013Z,69.37
2024-02-21T06:42:47.177Z,70.28
2024-02-21T06:45:52.102Z,70.33
2024-02-21T06:48:54.799Z,68.80
2024-02-21T06:51:57.077Z,69.67
2024-02-21T06:54:59.259Z,69.65
2024-02-21T06:58:01.397Z,69.40
2024-02-21T07:01:03.659Z,68.44
2024-02-21T07:04:05.922Z,68.05
2024-02-21T07:07:08.662Z,66.51
2024-02-21T07:10:11.961Z,65.17
2024-02-21T07:13:14.700Z,63.55
2024-02-21T07:16:17.031Z,61.17
2024-02-21T07:19:19.507Z,58.25
2024-02-21T07:22:21.846Z,56.80
2024-02-21T07:25:24.041Z,54.64
2024-02-21T07:28:26.324Z,54.37
2024-02-21T07:31:28.657Z,52.75
2024-02-21T07:34:31.087Z,50.39
2024-02-21T07:37:33.675Z,49.91
2024-02-21T07:40:35.997Z,49.18
2024-02-21T07:43:38.157Z,48.04
2024-02-21T07:46:40.411Z,46.41
2024-02-21T07:49:46.125Z,44.73
2024-02-21T07:52:48.477Z,43.29
2024-02-21T07:55:51.042Z,42.26
2024-02-21T07:58:53.263Z,39.97
2024-02-21T08:01:58.837Z,37.08
2024-02-21T08:05:01.040Z,35.85
2024-02-21T08:08:04.915Z,32.79
2024-02-21T08:11:07.231Z,29.51
2024-02-21T08:14:09.707Z,27.67
2024-02-21T08:17:11.995Z,28.68
2024-02-21T08:20:14.524Z,28.65
2024-02-21T08:23:20.004Z,29.97
2024-02-21T08:26:22.146Z,29.56
2024-02-21T08:29:24.284Z,27.87
2024-02-21T08:32:26.478Z,25.10
2024-02-21T08:35:28.887Z,25.91
2024-02-21T08:38:31.359Z,26.80
2024-02-21T08:41:47.422Z,26.25
2024-02-21T08:44:56.257Z,27.07
2024-02-21T08:47:58.566Z,28.07
2024-02-21T08:51:00.901Z,30.57
2024-02-21T08:54:03.999Z,33.85
2024-02-21T08:57:06.329Z,36.83
2024-02-21T09:00:12.067Z,37.97
2024-02-21T09:03:14.223Z,39.57
2024-02-21T09:06:16.503Z,40.16
2024-02-21T09:09:18.649Z,36.69
2024-02-21T09:12:20.885Z,39.15
2024-02-21T09:15:23.117Z,39.78
2024-02-21T09:18:25.573Z,36.49
2024-02-21T09:21:29.181Z,34.11
2024-02-21T09:24:31.431Z,32.58
2024-02-21T09:27:33.920Z,27.93
2024-02-21T09:30:36.187Z,26.43
2024-02-21T09:33:38.696Z,26.47
2024-02-21T09:36:41.612Z,24.75
2024-02-21T09:39:43.814Z,24.14
2024-02-21T09:42:48.093Z,25.20
2024-02-21T09:45:56.473Z,25.25
2024-02-21T09:49:19.620Z,28.70
2024-02-21T09:52:22.038Z,31.86
2024-02-21T09:55:25.193Z,29.83
2024-02-21T09:58:28.836Z,28.77
2024-02-21T10:01:34.950Z,28.47
2024-02-21T10:04:38.147Z,28.49
2024-02-21T10:07:40.815Z,25.78
2024-02-21T10:10:44.616Z,23.02
2024-02-21T10:13:47.957Z,24.56
2024-02-21T10:16:57.382Z,24.54
2024-02-21T10:20:13.215Z,22.68
2024-02-21T10:23:15.656Z,23.23
2024-02-21T10:26:19.340Z,25.64
2024-02-21T10:29:21.448Z,29.41
2024-02-21T10:32:24.043Z,32.86
2024-02-21T10:35:30.276Z,34.64
2024-02-21T10:38:33.392Z,35.67
2024-02-21T10:41:37.698Z,38.32
2024-02-21T10:44:42.295Z,39.47
2024-02-21T10:47:49.977Z,40.56
2024-02-21T10:51:02.588Z,41.78
2024-02-21T10:54:42.472Z,41.95
2024-02-21T10:57:45.028Z,42.04
2024-02-21T11:00:47.370Z,41.71
2024-02-21T11:03:52.457Z,41.49
2024-02-21T11:06:54.998Z,41.75
2024-02-21T11:09:57.330Z,40.74
2024-02-21T11:13:12.100Z,40.30
2024-02-21T11:16:23.623Z,39.56
2024-02-21T11:19:27.492Z,40.42
2024-02-21T11:22:32.625Z,40.26
2024-02-21T11:25:35.745Z,40.26
2024-02-21T11:28:38.883Z,40.59
2024-02-21T11:31:42.261Z,40.29
2024-02-21T11:34:57.240Z,40.23
2024-02-21T11:38:14.197Z,40.73
2024-02-21T11:41:17.498Z,39.94
2024-02-21T11:44:19.738Z,40.71
2024-02-21T11:47:21.887Z,40.27
2024-02-21T11:50:25.589Z,40.58
2024-02-21T11:53:33.390Z,41.06
2024-02-21T11:56:36.919Z,41.42
2024-02-21T11:59:41.189Z,42.27
2024-02-21T12:02:44.248Z,42.48
2024-02-21T12:05:48.159Z,43.31
2024-02-21T12:08:50.414Z,43.00
2024-02-21T12:12:04.346Z,43.47
2024-02-21T12:15:08.900Z,43.51
2024-02-21T12:18:11.646Z,44.44
2024-02-21T12:21:14.571Z,44.22
2024-02-21T12:24:25.976Z,43.57
2024-02-21T12:27:28.212Z,42.98
2024-02-21T12:30:31.814Z,43.48
2024-02-21T12:33:34.406Z,42.49
2024-02-21T12:36:42.739Z,42.93
2024-02-21T12:39:45.243Z,42.83
2024-02-21T12:42:47.469Z,42.44
2024-02-21T12:45:49.956Z,42.46
2024-02-21T12:48:52.135Z,42.74
2024-02-21T12:51:54.509Z,42.32
2024-02-21T12:54:59.764Z,43.14
2024-02-21T12:58:05.590Z,43.12
2024-02-21T13:01:07.896Z,43.84
2024-02-21T13:04:10.106Z,44.50
2024-02-21T13:07:12.306Z,45.48
2024-02-21T13:10:15.396Z,45.25
2024-02-21T13:13:17.606Z,45.11
2024-02-21T13:16:19.821Z,44.66
2024-02-21T13:19:22.269Z,43.62
2024-02-21T13:22:26.945Z,43.19
2024-02-21T13:25:29.121Z,43.15
2024-02-21T13:28:31.288Z,43.04
2024-02-21T13:31:33.512Z,43.49
2024-02-21T13:34:35.786Z,43.13
2024-02-21T13:37:38.393Z,43.12
2024-02-21T13:40:40.711Z,43.20
2024-02-21T13:43:42.918Z,43.33
2024-02-21T13:46:45.418Z,43.27
2024-02-21T13:49:47.654Z,43.43
2024-02-21T13:52:49.843Z,43.95
2024-02-21T13:55:52.283Z,44.17
2024-02-21T13:58:54.511Z,44.52
2024-02-21T14:01:57.103Z,44.86
2024-02-21T14:04:59.421Z,45.26
2024-02-21T14:08:01.643Z,44.68
2024-02-21T14:11:04.024Z,45.16
2024-02-21T14:14:06.657Z,45.53
2024-02-21T14:17:09.006Z,45.42
2024-02-21T14:20:13.856Z,45.16
2024-02-21T14:23:18.329Z,44.57
2024-02-21T14:26:20.594Z,44.77
2024-02-21T14:29:23.374Z,45.08
2024-02-21T14:32:25.700Z,44.66
2024-02-21T14:35:27.896Z,43.90
2024-02-21T14:38:30.121Z,44.26
2024-02-21T14:41:32.255Z,43.62
2024-02-21T14:44:36.464Z,43.41
2024-02-21T14:47:38.703Z,43.60
2024-02-21T14:50:41.785Z,43.72
2024-02-21T14:53:51.703Z,43.44
2024-02-21T14:56:55.494Z,43.89
2024-02-21T15:00:02.742Z,43.63
2024-02-21T15:03:05.653Z,43.72
2024-02-21T15:06:07.862Z,43.93
2024-02-21T15:09:10.534Z,44.71
2024-02-21T15:12:12.759Z,43.84
2024-02-21T15:15:15.021Z,43.92
2024-02-21T15:18:17.216Z,43.82
2024-02-21T15:21:20.065Z,43.66
2024-02-21T15:24:22.324Z,43.75
2024-02-21T15:27:25.432Z,44.38
2024-02-21T15:30:32.950Z,44.04
2024-02-21T15:33:37.042Z,44.39
2024-02-21T15:36:41.408Z,44.22
2024-02-21T15:39:45.043Z,44.38
2024-02-21T15:42:47.346Z,43.70
2024-02-21T15:45:49.478Z,45.03
2024-02-21T15:48:55.216Z,44.27
2024-02-21T15:51:57.981Z,44.87
2024-02-21T15:55:00.204Z,44.29
2024-02-21T15:58:05.210Z,44.06
2024-02-21T16:01:07.796Z,44.90
2024-02-21T16:04:12.281Z,45.54
2024-02-21T16:07:14.590Z,45.52
2024-02-21T16:10:16.954Z,46.16
2024-02-21T16:13:19.048Z,46.27
2024-02-21T16:16:21.370Z,46.01
2024-02-21T16:19:24.443Z,45.76
2024-02-21T16:22:26.615Z,45.71
2024-02-21T16:25:28.686Z,46.17
2024-02-21T16:28:30.838Z,45.95
2024-02-21T16:31:32.968Z,46.48
2024-02-21T16:34:36.149Z,46.84
2024-02-21T16:37:38.396Z,46.74
2024-02-21T16:40:42.129Z,47.19
2024-02-21T16:43:44.403Z,46.53
2024-02-21T16:46:46.954Z,47.07
2024-02-21T16:49:50.370Z,47.22
2024-02-21T16:52:53.915Z,47.94
2024-02-21T16:55:56.501Z,48.03
2024-02-21T16:58:59.128Z,47.31
2024-02-21T17:02:03.099Z,47.39
2024-02-21T17:05:07.028Z,48.46
2024-02-21T17:08:10.602Z,48.58
2024-02-21T17:11:13.937Z,47.94
2024-02-21T17:14:16.531Z,48.32
2024-02-21T17:17:18.821Z,48.23
2024-02-21T17:20:21.169Z,47.95
2024-02-21T17:23:23.930Z,48.31
2024-02-21T17:26:27.225Z,48.33
2024-02-21T17:29:30.126Z,48.52
2024-02-21T17:32:32.863Z,47.89
2024-02-21T17:35:36.063Z,47.64
2024-02-21T17:38:38.403Z,49.00
2024-02-21T17:41:40.546Z,47.89
2024-02-21T17:44:46.476Z,48.01
2024-02-21T17:47:49.183Z,47.31
2024-02-21T17:50:52.219Z,47.64
2024-02-21T17:53:54.560Z,48.04
2024-02-21T17:56:59.821Z,48.66
2024-02-21T18:00:03.306Z,48.09
2024-02-21T18:03:17.828Z,48.15
2024-02-21T18:06:21.531Z,49.45
2024-02-21T18:09:23.888Z,49.67
2024-02-21T18:12:26.038Z,49.74
2024-02-21T18:15:28.835Z,49.58
2024-02-21T18:18:31.773Z,48.52
2024-02-21T18:21:34.571Z,48.37
2024-02-21T18:24:36.623Z,49.32
2024-02-21T18:27:39.138Z,48.97
2024-02-21T18:30:41.747Z,49.04
2024-02-21T18:33:46.222Z,49.15
2024-02-21T18:36:48.537Z,49.02
2024-02-21T18:39:51.104Z,49.52
2024-02-21T18:42:53.297Z,49.53
2024-02-21T18:45:55.808Z,50.31
2024-02-21T18:48:57.941Z,49.86
2024-02-21T18:52:01.138Z,50.82
2024-02-21T18:55:03.601Z,50.38
2024-02-21T18:58:05.825Z,49.99
2024-02-21T19:01:08.219Z,50.48
2024-02-21T19:04:10.477Z,50.09
2024-02-21T19:07:12.736Z,50.59
2024-02-21T19:10:15.051Z,50.92
2024-02-21T19:13:17.153Z,50.75
2024-02-21T19:16:19.495Z,50.60
2024-02-21T19:19:21.784Z,49.62
2024-02-21T19:22:26.020Z,50.77
2024-02-21T19:25:28.862Z,50.65
2024-02-21T19:28:31.243Z,51.54
2024-02-21T19:31:33.516Z,52.31
2024-02-21T19:34:37.869Z,53.29
2024-02-21T19:37:41.608Z,52.47
2024-02-21T19:40:43.968Z,53.64
2024-02-21T19:43:47.607Z,53.76
2024-02-21T19:46:50.430Z,54.04
2024-02-21T19:49:53.375Z,54.65
2024-02-21T19:52:56.421Z,54.76
2024-02-21T19:55:58.910Z,53.83
2024-02-21T19:59:02.569Z,54.23
2024-02-21T20:02:05.057Z,54.62
2024-02-21T20:05:08.450Z,54.14
2024-02-21T20:08:12.501Z,54.66
2024-02-21T20:11:15.526Z,55.09
2024-02-21T20:14:22.067Z,53.90
2024-02-21T20:17:24.748Z,54.45
2024-02-21T20:20:28.613Z,53.29
2024-02-21T20:23:31.592Z,54.56
2024-02-21T20:26:33.745Z,56.23
2024-02-21T20:29:36.199Z,56.79
2024-02-21T20:32:38.426Z,56.86
2024-02-21T20:35:40.677Z,57.64
2024-02-21T20:38:42.965Z,57.43
2024-02-21T20:41:45.174Z,57.98
2024-02-21T20:44:47.419Z,58.52
2024-02-21T20:47:49.634Z,58.40
2024-02-21T20:50:52.405Z,59.70
2024-02-21T20:53:54.632Z,59.56
2024-02-21T20:56:59.236Z,59.75
2024-02-21T21:00:01.786Z,60.31
2024-02-21T21:03:04.214Z,60.94
2024-02-21T21:06:06.766Z,61.14
2024-02-21T21:09:09.770Z,60.48
2024-02-21T21:12:12.211Z,60.64
2024-02-21T21:15:14.513Z,58.21
2024-02-21T21:18:17.498Z,56.96
2024-02-21T21:21:19.693Z,56.08
2024-02-21T21:24:21.945Z,55.71
2024-02-21T21:27:27.757Z,55.86
2024-02-21T21:30:29.927Z,56.00
2024-02-21T21:33:37.495Z,56.16
2024-02-21T21:36:39.742Z,57.13
2024-02-21T21:39:45.005Z,57.87
2024-02-21T21:42:47.359Z,59.40
2024-02-21T21:45:49.606Z,60.09
2024-02-21T21:48:51.863Z,60.06
2024-02-21T21:51:54.157Z,59.71
2024-02-21T21:54:56.365Z,60.38
2024-02-21T21:57:58.605Z,59.87
2024-02-21T22:01:00.892Z,60.43
2024-02-21T22:04:03.454Z,60.55
2024-02-21T22:07:05.688Z,60.84
2024-02-21T22:10:08.276Z,60.76
2024-02-21T22:13:10.424Z,60.83
2024-02-21T22:16:12.610Z,60.87
2024-02-21T22:19:14.886Z,59.63
2024-02-21T22:22:17.401Z,59.95
2024-02-21T22:25:19.544Z,60.25
2024-02-21T22:28:23.261Z,60.58
2024-02-21T22:31:25.521Z,61.56
2024-02-21T22:34:27.895Z,61.53
2024-02-21T22:37:30.208Z,61.71
2024-02-21T22:40:32.415Z,62.07
2024-02-21T22:43:35.258Z,62.27
2024-02-21T22:46:39.511Z,62.12
2024-02-21T22:49:42.473Z,62.41
2024-02-21T22:52:45.435Z,62.14
2024-02-21T22:55:47.616Z,62.76
2024-02-21T22:58:51.718Z,63.44
2024-02-21T23:01:54.472Z,63.16
2024-02-21T23:04:56.773Z,62.52
2024-02-21T23:07:59.045Z,62.54
2024-02-21T23:11:01.977Z,61.93
2024-02-21T23:14:04.992Z,62.38
2024-02-21T23:17:07.230Z,62.66
2024-02-21T23:20:09.871Z,63.12
2024-02-21T23:23:12.535Z,63.67
2024-02-21T23:26:14.814Z,63.23
2024-02-21T23:29:17.117Z,63.60
2024-02-21T23:32:20.218Z,63.81
2024-02-21T23:35:22.459Z,63.42
2024-02-21T23:38:24.759Z,63.83
2024-02-21T23:41:26.910Z,63.33
2024-02-21T23:44:29.150Z,63.87
2024-02-21T23:47:31.367Z,64.20
2024-02-21T23:50:33.609Z,64.04
2024-02-21T23:53:36.143Z,64.25
2024-02-21T23:56:43.201Z,64.20
2024-02-21T23:59:45.633Z,64.03
